Gulfport, Illinois
Current Conditions -  °F | °C
As of 9:53 PM on Friday 24 Oct 2014 (Local Time) from KBRL Reporting Station
Few Clouds Few Clouds  
Wind Chill: 57°   Ceiling: Unl
Heat Index: 57°   Visibility: 7mi
Dew Point: 55°   Wind: 3mph
Humidity: 93%   Direction: 170°S
Pressure: 29.96"   Gusts: NA
Location:  40.7646°N, 91.0498°W
Report Text: KBRL 250253Z AUTO 17003KT 7SM FEW041 14/13 A2996 RMK AO2 SLP144 T01390128 50009
Loading
Personal Weather Stations






























Interactive Weather Map
Tropical Storm Tracking
New forecast layout! Learn more

10-Day Weather Forecast

Advertisements
Track Severe Weather on mobile